Tipton, Missouri
Current Conditions -  °F | °C
As of 11:35 AM on Tuesday 21 Oct 2014 (Local Time) from KVER Reporting Station
Clear Clear  
Wind Chill: 65°   Ceiling: Unl
Heat Index: 65°   Visibility: 10mi
Dew Point: 47°   Wind: 0mph
Humidity: 52%   Direction: NA
Pressure: 30.14"   Gusts: NA
Location:  38.66°N, 92.78°W
Report Text: KVER 211635Z AUTO 00000KT 10SM CLR 18/08 A3014 RMK AO2 T01830083
Loading
Personal Weather Stations






























Interactive Weather Map New forecast layout! Learn more

10-Day Weather Forecast

Advertisements
Track Severe Weather on mobile